createdAt,value
2022-11-23T00:02:20.307Z,94986.84
2022-11-23T00:07:22.619Z,95051.72
2022-11-23T00:12:24.748Z,95052.25
2022-11-23T00:17:26.875Z,95023.69
2022-11-23T00:22:28.948Z,95019.41
2022-11-23T00:27:31.067Z,95018.41
2022-11-23T00:32:33.292Z,94991.88
2022-11-23T00:37:35.387Z,95017.94
2022-11-23T00:42:38.355Z,95008.66
2022-11-23T00:47:40.810Z,94999.72
2022-11-23T00:52:43.041Z,94949.97
2022-11-23T00:57:45.073Z,94927.28
2022-11-23T01:02:47.172Z,94892.19
2022-11-23T01:07:49.306Z,94897.44
2022-11-23T01:12:51.621Z,94895.41
2022-11-23T01:17:53.839Z,94829.09
2022-11-23T01:22:55.925Z,94849.88
2022-11-23T01:27:57.918Z,94810.44
2022-11-23T01:33:01.543Z,94874.25
2022-11-23T01:38:03.873Z,94858.56
2022-11-23T01:43:13.880Z,94872.59
2022-11-23T01:48:20.988Z,94871.25
2022-11-23T01:53:23.687Z,94857.22
2022-11-23T01:58:28.432Z,94840.41
2022-11-23T02:03:33.058Z,94833.38
2022-11-23T02:08:37.912Z,94762.78
2022-11-23T02:13:41.093Z,94712.47
2022-11-23T02:18:45.670Z,94740.84
2022-11-23T02:23:50.874Z,94777.00
2022-11-23T02:28:56.072Z,94810.59
2022-11-23T02:33:58.636Z,94824.44
2022-11-23T02:39:05.630Z,94795.38
2022-11-23T02:44:18.102Z,94798.91
2022-11-23T02:49:20.436Z,94829.34
2022-11-23T02:54:22.448Z,94833.38
2022-11-23T02:59:24.517Z,94845.63
2022-11-23T03:04:28.324Z,94866.91
2022-11-23T03:09:30.911Z,94882.31
2022-11-23T03:14:33.450Z,94874.66
2022-11-23T03:19:35.973Z,94858.16
2022-11-23T03:24:38.280Z,94860.00
2022-11-23T03:29:41.931Z,94870.47
2022-11-23T03:34:50.348Z,94866.56
2022-11-23T03:39:55.006Z,94860.16
2022-11-23T03:45:23.356Z,94862.44
2022-11-23T03:50:25.460Z,94844.50
2022-11-23T03:55:27.780Z,94851.66
2022-11-23T04:00:31.208Z,94828.53
2022-11-23T04:05:34.014Z,94843.34
2022-11-23T04:10:59.299Z,94846.84
2022-11-23T04:16:19.316Z,94840.72
2022-11-23T04:21:21.602Z,94840.69
2022-11-23T04:26:23.805Z,94839.13
2022-11-23T04:31:25.970Z,94849.56
2022-11-23T04:36:43.212Z,94834.91
2022-11-23T04:41:46.235Z,94834.88
2022-11-23T04:46:50.433Z,94833.97
2022-11-23T04:51:54.881Z,94836.75
2022-11-23T04:57:03.441Z,94784.94
2022-11-23T05:02:05.847Z,94821.34
2022-11-23T05:07:19.017Z,94838.97
2022-11-23T05:12:27.839Z,94820.91
2022-11-23T05:17:30.343Z,94851.47
2022-11-23T05:22:32.459Z,94822.94
2022-11-23T05:27:35.381Z,94849.56
2022-11-23T05:32:37.721Z,94832.69
2022-11-23T05:37:41.862Z,94826.81
2022-11-23T05:42:46.729Z,94866.00
2022-11-23T05:47:57.316Z,94852.50
2022-11-23T05:53:28.774Z,94854.75
2022-11-23T05:58:38.230Z,94851.56
2022-11-23T06:03:41.324Z,94847.59
2022-11-23T06:08:49.003Z,94843.84
2022-11-23T06:13:52.917Z,94835.38
2022-11-23T06:18:55.246Z,94857.84
2022-11-23T06:23:57.327Z,94878.69
2022-11-23T06:29:00.938Z,94863.63
2022-11-23T06:34:04.366Z,94852.66
2022-11-23T06:39:08.871Z,94861.75
2022-11-23T06:44:10.936Z,94841.09
2022-11-23T06:49:17.447Z,94865.06
2022-11-23T06:54:27.330Z,94859.50
2022-11-23T06:59:31.644Z,94842.25
2022-11-23T07:04:34.232Z,94877.81
2022-11-23T07:09:39.528Z,94866.81
2022-11-23T07:14:53.680Z,94872.25
2022-11-23T07:19:56.039Z,94894.59
2022-11-23T07:24:58.300Z,94891.56
2022-11-23T07:30:00.480Z,94865.94
2022-11-23T07:35:02.588Z,94865.25
2022-11-23T07:40:07.820Z,94873.94
2022-11-23T07:45:12.643Z,94853.53
2022-11-23T07:50:19.456Z,94842.03
2022-11-23T07:55:21.815Z,94840.75
2022-11-23T08:00:26.041Z,94830.91
2022-11-23T08:05:28.508Z,94850.56
2022-11-23T08:10:32.161Z,94838.75
2022-11-23T08:15:35.915Z,94852.84
2022-11-23T08:20:38.071Z,94848.53
2022-11-23T08:25:40.188Z,94832.84
2022-11-23T08:30:42.563Z,94825.72
2022-11-23T08:35:44.596Z,94829.69
2022-11-23T08:40:46.755Z,94834.59
2022-11-23T08:45:49.106Z,94844.94
2022-11-23T08:50:52.182Z,94846.47
2022-11-23T08:55:54.252Z,94849.84
2022-11-23T09:00:56.522Z,94840.91
2022-11-23T09:06:00.891Z,94845.91
2022-11-23T09:11:05.668Z,94825.06
2022-11-23T09:16:08.698Z,94850.41
2022-11-23T09:21:17.744Z,94847.94
2022-11-23T09:26:20.040Z,94816.06
2022-11-23T09:31:24.152Z,94808.13
2022-11-23T09:36:26.388Z,94814.25
2022-11-23T09:42:03.833Z,94828.09
2022-11-23T09:47:22.842Z,94809.13
2022-11-23T09:52:26.085Z,94821.13
2022-11-23T09:57:32.891Z,94814.50
2022-11-23T10:02:40.703Z,94821.38
2022-11-23T10:08:19.387Z,94806.50
2022-11-23T10:14:00.125Z,94806.22
2022-11-23T10:19:14.387Z,94803.63
2022-11-23T10:24:20.388Z,94801.47
2022-11-23T10:29:38.362Z,94801.31
2022-11-23T10:35:00.665Z,94794.19
2022-11-23T10:40:02.814Z,94793.41
2022-11-23T10:45:06.153Z,94783.97
2022-11-23T10:50:29.977Z,94792.19
2022-11-23T10:55:58.339Z,94789.50
2022-11-23T11:01:06.113Z,94785.84
2022-11-23T11:06:10.170Z,94788.66
2022-11-23T11:11:27.120Z,94789.56
2022-11-23T11:16:32.507Z,94789.19
2022-11-23T11:21:41.165Z,94809.75
2022-11-23T11:27:02.825Z,94798.94
2022-11-23T11:32:12.495Z,94793.34
2022-11-23T11:37:32.414Z,94807.50
2022-11-23T11:42:41.039Z,94800.22
2022-11-23T11:48:10.732Z,94805.56
2022-11-23T11:53:18.235Z,94804.94
2022-11-23T11:58:24.216Z,94799.25
2022-11-23T12:03:44.277Z,94804.25
2022-11-23T12:09:14.487Z,94814.72
2022-11-23T12:14:17.467Z,94812.63
2022-11-23T12:19:25.466Z,94811.38
2022-11-23T12:24:42.559Z,94813.13
2022-11-23T12:30:03.412Z,94812.16
2022-11-23T12:35:30.288Z,94813.81
2022-11-23T12:40:49.200Z,94813.66
2022-11-23T12:45:51.586Z,94828.91
2022-11-23T12:51:32.332Z,94833.59
2022-11-23T12:56:51.248Z,94825.88
2022-11-23T13:02:00.771Z,94813.16
2022-11-23T13:07:42.291Z,94838.75
2022-11-23T13:13:16.362Z,94844.94
2022-11-23T13:18:18.570Z,94847.22
2022-11-23T13:23:23.712Z,94829.84
2022-11-23T13:28:31.074Z,94827.63
2022-11-23T13:33:39.360Z,94841.56
2022-11-23T13:38:44.971Z,94847.72
2022-11-23T13:43:47.411Z,94838.97
2022-11-23T13:48:57.150Z,94852.84
2022-11-23T13:54:05.718Z,94853.84
2022-11-23T13:59:25.572Z,94856.63
2022-11-23T14:04:32.462Z,94849.56
2022-11-23T14:09:43.132Z,94836.16
2022-11-23T14:14:51.432Z,94866.56
2022-11-23T14:20:30.649Z,94871.31
2022-11-23T14:26:09.761Z,94879.56
2022-11-23T14:31:28.051Z,94870.78
2022-11-23T14:36:42.168Z,94879.22
2022-11-23T14:41:50.380Z,94871.94
2022-11-23T14:47:07.616Z,94866.84
2022-11-23T14:52:28.093Z,94883.91
2022-11-23T14:57:46.976Z,94891.19
2022-11-23T15:02:49.761Z,94915.31
2022-11-23T15:08:00.632Z,94917.56
2022-11-23T15:13:03.137Z,94895.84
2022-11-23T15:18:05.416Z,94920.63
2022-11-23T15:23:17.742Z,94912.72
2022-11-23T15:28:27.542Z,94907.19
2022-11-23T15:33:29.804Z,94901.09
2022-11-23T15:38:32.308Z,94909.13
2022-11-23T15:43:34.502Z,94893.78
2022-11-23T15:48:38.125Z,94922.28
2022-11-23T15:53:49.881Z,94942.31
2022-11-23T15:58:53.403Z,94942.13
2022-11-23T16:04:12.714Z,94934.16
2022-11-23T16:09:53.955Z,94940.22
2022-11-23T16:14:59.389Z,94930.28
2022-11-23T16:20:05.225Z,94930.44
2022-11-23T16:25:09.244Z,94965.47
2022-11-23T16:30:35.165Z,94939.41
2022-11-23T16:35:37.502Z,94924.19
2022-11-23T16:40:40.715Z,94957.97
2022-11-23T16:45:45.110Z,94976.41
2022-11-23T16:50:47.457Z,94972.28
2022-11-23T16:55:57.254Z,94990.63
2022-11-23T17:01:03.656Z,94982.06
2022-11-23T17:06:24.515Z,94966.22
2022-11-23T17:11:27.108Z,94996.00
2022-11-23T17:16:31.147Z,94957.19
2022-11-23T17:21:33.387Z,94997.22
2022-11-23T17:26:38.963Z,95026.75
2022-11-23T17:31:43.716Z,95032.69
2022-11-23T17:36:47.887Z,95012.91
2022-11-23T17:41:50.284Z,94994.69
2022-11-23T17:47:00.895Z,95034.72
2022-11-23T17:52:03.456Z,95042.00
2022-11-23T17:57:05.655Z,95046.97
2022-11-23T18:02:08.979Z,95046.47
2022-11-23T18:07:14.337Z,95038.25
2022-11-23T18:12:17.600Z,95017.91
2022-11-23T18:17:22.488Z,95033.47
2022-11-23T18:22:24.610Z,95058.84
2022-11-23T18:27:27.385Z,95061.53
2022-11-23T18:32:29.413Z,95046.28
2022-11-23T18:37:31.607Z,95079.66
2022-11-23T18:42:33.888Z,95040.38
2022-11-23T18:47:35.991Z,95089.75
2022-11-23T18:52:38.305Z,95092.16
2022-11-23T18:57:40.548Z,95051.56
2022-11-23T19:02:42.910Z,95077.78
2022-11-23T19:07:45.073Z,95074.94
2022-11-23T19:12:47.267Z,95096.34
2022-11-23T19:17:49.666Z,95090.47
2022-11-23T19:22:52.305Z,95080.88
2022-11-23T19:27:54.668Z,95103.22
2022-11-23T19:32:58.533Z,95099.50
2022-11-23T19:38:00.873Z,95100.69
2022-11-23T19:43:03.150Z,95116.00
2022-11-23T19:48:05.476Z,95090.63
2022-11-23T19:53:12.878Z,95092.13
2022-11-23T19:58:18.677Z,95119.34
2022-11-23T20:03:20.951Z,95104.44
2022-11-23T20:08:23.251Z,95090.78
2022-11-23T20:13:25.562Z,95109.06
2022-11-23T20:18:29.817Z,95092.16
2022-11-23T20:23:41.442Z,95137.19
2022-11-23T20:28:43.913Z,95144.06
2022-11-23T20:33:46.522Z,95112.63
2022-11-23T20:38:49.367Z,95133.38
2022-11-23T20:43:55.099Z,95129.63
2022-11-23T20:49:00.155Z,95114.34
2022-11-23T20:54:02.613Z,95141.78
2022-11-23T20:59:05.210Z,95129.56
2022-11-23T21:04:08.552Z,95151.34
2022-11-23T21:09:11.493Z,95126.97
2022-11-23T21:14:21.836Z,95168.94
2022-11-23T21:19:32.820Z,95172.69
2022-11-23T21:24:35.867Z,95171.59
2022-11-23T21:29:38.759Z,95138.56
2022-11-23T21:34:40.844Z,95139.78
2022-11-23T21:39:46.599Z,95145.63
2022-11-23T21:44:51.840Z,95162.38
2022-11-23T21:49:54.058Z,95177.78
2022-11-23T21:54:56.157Z,95160.88
2022-11-23T21:59:58.302Z,95130.78
2022-11-23T22:05:00.324Z,95146.66
2022-11-23T22:10:02.643Z,95178.78
2022-11-23T22:15:05.261Z,95165.91
2022-11-23T22:20:08.556Z,95176.34
2022-11-23T22:25:11.251Z,95196.00
2022-11-23T22:30:13.783Z,95178.13
2022-11-23T22:35:16.202Z,95202.28
2022-11-23T22:40:18.579Z,95178.53
2022-11-23T22:45:20.688Z,95182.19
2022-11-23T22:50:22.755Z,95179.91
2022-11-23T22:55:25.153Z,95192.53
2022-11-23T23:00:27.286Z,95150.06
2022-11-23T23:05:29.370Z,95173.81
2022-11-23T23:10:31.600Z,95199.94
2022-11-23T23:15:33.958Z,95186.22
2022-11-23T23:20:36.596Z,95205.13
2022-11-23T23:25:38.975Z,95203.16
2022-11-23T23:30:41.069Z,95202.94
2022-11-23T23:35:51.337Z,95175.13
2022-11-23T23:40:56.432Z,95207.66
2022-11-23T23:46:00.379Z,95189.53
2022-11-23T23:51:07.349Z,95201.69
2022-11-23T23:56:14.817Z,95197.41
